createdAt,value
2018-02-11T00:00:56.582Z,100116.95
2018-02-11T00:03:25.005Z,100112.73
2018-02-11T00:05:53.357Z,100106.12
2018-02-11T00:08:21.706Z,100103.14
2018-02-11T00:10:50.137Z,100105.08
2018-02-11T00:13:18.469Z,100098.34
2018-02-11T00:15:46.813Z,100087.13
2018-02-11T00:18:15.164Z,100093.36
2018-02-11T00:20:43.546Z,100088.56
2018-02-11T00:23:11.873Z,100080.70
2018-02-11T00:25:40.231Z,100075.95
2018-02-11T00:28:08.565Z,100062.69
2018-02-11T00:30:36.889Z,100060.19
2018-02-11T00:33:05.237Z,100055.26
2018-02-11T00:35:34.424Z,100039.19
2018-02-11T00:38:08.509Z,100028.19
2018-02-11T00:40:36.847Z,100023.95
2018-02-11T00:43:05.181Z,100016.85
2018-02-11T00:45:33.563Z,100016.41
2018-02-11T00:48:01.941Z,100018.52
2018-02-11T00:50:30.318Z,100008.18
2018-02-11T00:52:58.665Z,100007.13
2018-02-11T00:55:26.989Z,100000.93
2018-02-11T00:57:55.337Z,99989.65
2018-02-11T01:00:23.725Z,99996.58
2018-02-11T01:02:52.065Z,99990.61
2018-02-11T01:05:20.477Z,99987.77
2018-02-11T01:07:48.825Z,99989.96
2018-02-11T01:10:17.146Z,99972.41
2018-02-11T01:12:45.466Z,99973.37
2018-02-11T01:15:13.805Z,99971.55
2018-02-11T01:17:42.125Z,99974.10
2018-02-11T01:20:10.469Z,99965.31
2018-02-11T01:22:38.809Z,99961.00
2018-02-11T01:25:07.185Z,99960.22
2018-02-11T01:27:35.584Z,99952.12
2018-02-11T01:30:03.910Z,99945.64
2018-02-11T01:32:32.343Z,99947.63
2018-02-11T01:35:00.680Z,99940.27
2018-02-11T01:37:29.068Z,99927.55
2018-02-11T01:39:57.416Z,99929.30
2018-02-11T01:42:25.717Z,99923.17
2018-02-11T01:44:59.749Z,99917.58
2018-02-11T01:47:28.065Z,99908.54
2018-02-11T01:50:08.360Z,99901.78
2018-02-11T01:52:36.681Z,99898.80
2018-02-11T01:55:05.121Z,99888.39
2018-02-11T01:57:33.432Z,99881.78
2018-02-11T02:00:01.752Z,99875.18
2018-02-11T02:02:30.097Z,99869.30
2018-02-11T02:04:58.393Z,99861.34
2018-02-11T02:07:26.729Z,99848.42
2018-02-11T02:09:55.037Z,99846.00
2018-02-11T02:12:23.369Z,99833.42
2018-02-11T02:14:51.677Z,99825.98
2018-02-11T02:17:20.018Z,99816.84
2018-02-11T02:19:48.321Z,99819.45
2018-02-11T02:22:16.653Z,99819.35
2018-02-11T02:24:44.960Z,99804.91
2018-02-11T02:27:13.305Z,99800.27
2018-02-11T02:29:41.625Z,99795.13
2018-02-11T02:32:09.956Z,99789.25
2018-02-11T02:34:38.338Z,99784.03
2018-02-11T02:37:06.710Z,99778.09
2018-02-11T02:39:35.046Z,99773.41
2018-02-11T02:42:03.357Z,99760.73
2018-02-11T02:44:31.746Z,99760.20
2018-02-11T02:47:00.054Z,99758.66
2018-02-11T02:49:28.428Z,99751.13
2018-02-11T02:51:56.732Z,99738.39
2018-02-11T02:54:25.150Z,99726.84
2018-02-11T02:56:53.463Z,99723.45
2018-02-11T02:59:21.857Z,99711.84
2018-02-11T03:01:50.173Z,99705.09
2018-02-11T03:04:18.505Z,99699.62
2018-02-11T03:06:46.829Z,99699.61
2018-02-11T03:09:15.161Z,99698.33
2018-02-11T03:11:43.469Z,99692.11
2018-02-11T03:14:11.800Z,99692.12
2018-02-11T03:16:40.229Z,99679.91
2018-02-11T03:19:08.539Z,99680.05
2018-02-11T03:21:36.874Z,99676.57
2018-02-11T03:24:05.181Z,99668.47
2018-02-11T03:26:33.596Z,99667.92
2018-02-11T03:29:01.849Z,99659.09
2018-02-11T03:31:30.198Z,99653.49
2018-02-11T03:33:58.569Z,99647.75
2018-02-11T03:36:26.903Z,99641.73
2018-02-11T03:38:55.249Z,99636.05
2018-02-11T03:41:23.605Z,99632.14
2018-02-11T03:43:51.956Z,99625.77
2018-02-11T03:46:20.382Z,99620.80
2018-02-11T03:48:48.722Z,99607.00
2018-02-11T03:51:17.119Z,99605.84
2018-02-11T03:53:45.429Z,99592.33
2018-02-11T03:56:13.749Z,99578.08
2018-02-11T03:58:42.106Z,99584.81
2018-02-11T04:01:10.521Z,99576.78
2018-02-11T04:03:38.882Z,99558.80
2018-02-11T04:06:07.394Z,99556.91
2018-02-11T04:08:35.752Z,99555.35
2018-02-11T04:11:04.163Z,99550.99
2018-02-11T04:13:32.506Z,99543.49
2018-02-11T04:16:00.809Z,99543.42
2018-02-11T04:18:29.140Z,99523.92
2018-02-11T04:20:57.457Z,99519.84
2018-02-11T04:23:25.787Z,99518.34
2018-02-11T04:25:54.184Z,99507.12
2018-02-11T04:28:22.561Z,99498.47
2018-02-11T04:30:50.933Z,99485.19
2018-02-11T04:33:19.362Z,99484.47
2018-02-11T04:35:47.699Z,99480.02
2018-02-11T04:38:16.006Z,99456.92
2018-02-11T04:40:44.341Z,99446.91
2018-02-11T04:43:12.717Z,99440.99
2018-02-11T04:45:41.058Z,99419.20
2018-02-11T04:48:09.365Z,99430.50
2018-02-11T04:50:37.692Z,99418.41
2018-02-11T04:53:05.997Z,99413.41
2018-02-11T04:55:34.328Z,99410.23
2018-02-11T04:58:02.681Z,99400.02
2018-02-11T05:00:31.008Z,99388.49
2018-02-11T05:02:59.330Z,99365.85
2018-02-11T05:05:27.661Z,99375.66
2018-02-11T05:07:56.085Z,99355.50
2018-02-11T05:10:24.473Z,99371.36
2018-02-11T05:12:52.847Z,99377.29
2018-02-11T05:15:21.213Z,99373.65
2018-02-11T05:17:49.522Z,99361.00
2018-02-11T05:20:17.857Z,99348.02
2018-02-11T05:22:46.240Z,99338.89
2018-02-11T05:25:14.560Z,99332.66
2018-02-11T05:27:42.898Z,99329.83
2018-02-11T05:30:11.215Z,99321.92
2018-02-11T05:32:39.653Z,99300.47
2018-02-11T05:35:07.974Z,99297.52
2018-02-11T05:37:36.308Z,99287.17
2018-02-11T05:40:04.613Z,99286.38
2018-02-11T05:42:32.945Z,99285.17
2018-02-11T05:45:01.331Z,99272.97
2018-02-11T05:47:29.657Z,99276.05
2018-02-11T05:49:57.974Z,99268.18
2018-02-11T05:52:26.309Z,99247.75
2018-02-11T05:54:54.641Z,99258.56
2018-02-11T05:57:23.021Z,99256.98
2018-02-11T05:59:51.329Z,99243.52
2018-02-11T06:02:19.665Z,99249.40
2018-02-11T06:04:48.053Z,99249.75
2018-02-11T06:07:16.429Z,99226.53
2018-02-11T06:09:44.733Z,99237.77
2018-02-11T06:12:13.057Z,99223.77
2018-02-11T06:14:41.449Z,99236.41
2018-02-11T06:17:09.830Z,99217.81
2018-02-11T06:19:38.212Z,99219.94
2018-02-11T06:22:06.518Z,99212.25
2018-02-11T06:24:34.849Z,99210.19
2018-02-11T06:27:03.157Z,99206.69
2018-02-11T06:29:31.486Z,99203.16
2018-02-11T06:31:59.890Z,99197.94
2018-02-11T06:34:28.226Z,99205.56
2018-02-11T06:36:56.533Z,99198.17
2018-02-11T06:39:24.865Z,99201.95
2018-02-11T06:41:53.176Z,99201.75
2018-02-11T06:44:21.565Z,99186.61
2018-02-11T06:46:49.945Z,99169.84
2018-02-11T06:49:18.321Z,99184.85
2018-02-11T06:51:46.701Z,99174.50
2018-02-11T06:54:15.034Z,99155.77
2018-02-11T06:56:43.340Z,99150.11
2018-02-11T06:59:11.729Z,99160.98
2018-02-11T07:01:40.104Z,99157.89
2018-02-11T07:04:08.438Z,99149.53
2018-02-11T07:06:36.745Z,99150.64
2018-02-11T07:09:05.054Z,99163.69
2018-02-11T07:11:33.390Z,99160.50
2018-02-11T07:14:01.780Z,99156.08
2018-02-11T07:16:30.172Z,99149.00
2018-02-11T07:18:58.541Z,99157.72
2018-02-11T07:21:26.869Z,99158.17
2018-02-11T07:23:55.198Z,99138.32
2018-02-11T07:26:23.534Z,99137.42
2018-02-11T07:28:51.958Z,99149.20
2018-02-11T07:31:20.330Z,99139.17
2018-02-11T07:33:48.645Z,99136.36
2018-02-11T07:36:17.081Z,99126.78
2018-02-11T07:38:45.471Z,99135.06
2018-02-11T07:41:13.801Z,99124.27
2018-02-11T07:43:42.110Z,99126.83
2018-02-11T07:46:10.443Z,99122.75
2018-02-11T07:48:38.753Z,99109.74
2018-02-11T07:51:07.095Z,99109.42
2018-02-11T07:53:35.422Z,99117.33
2018-02-11T07:56:03.794Z,99121.61
2018-02-11T07:58:32.165Z,99134.92
2018-02-11T08:01:01.015Z,99128.84
2018-02-11T08:03:29.920Z,99120.66
2018-02-11T08:05:58.226Z,99127.31
2018-02-11T08:08:27.433Z,99112.94
2018-02-11T08:10:56.318Z,99113.92
2018-02-11T08:13:24.681Z,99134.82
2018-02-11T08:15:53.937Z,99122.57
2018-02-11T08:18:22.654Z,99116.75
2018-02-11T08:20:51.049Z,99121.41
2018-02-11T08:23:19.381Z,99113.34
2018-02-11T08:25:47.716Z,99136.31
2018-02-11T08:28:16.077Z,99113.02
2018-02-11T08:30:44.457Z,99116.42
2018-02-11T08:33:12.836Z,99099.61
2018-02-11T08:35:41.269Z,99119.89
2018-02-11T08:38:10.358Z,99102.03
2018-02-11T08:40:38.672Z,99118.57
2018-02-11T08:43:07.059Z,99117.39
2018-02-11T08:45:35.393Z,99106.78
2018-02-11T08:48:03.815Z,99112.02
2018-02-11T08:50:32.198Z,99108.02
2018-02-11T08:53:00.506Z,99102.38
2018-02-11T08:55:28.949Z,99103.95
2018-02-11T08:57:57.365Z,99101.42
2018-02-11T09:00:25.693Z,99097.80
2018-02-11T09:02:54.002Z,99108.04
2018-02-11T09:05:22.457Z,99101.49
2018-02-11T09:07:50.829Z,99106.75
2018-02-11T09:10:19.258Z,99119.28
2018-02-11T09:12:47.609Z,99120.81
2018-02-11T09:15:15.922Z,99122.26
2018-02-11T09:17:44.238Z,99111.66
2018-02-11T09:20:12.569Z,99114.27
2018-02-11T09:22:40.881Z,99119.09
2018-02-11T09:25:09.262Z,99115.79
2018-02-11T09:27:37.573Z,99116.70
2018-02-11T09:30:05.904Z,99123.94
2018-02-11T09:32:34.209Z,99115.55
2018-02-11T09:35:02.578Z,99124.81
2018-02-11T09:37:30.907Z,99122.65
2018-02-11T09:39:59.214Z,99126.44
2018-02-11T09:42:27.550Z,99132.59
2018-02-11T09:44:55.857Z,99131.66
2018-02-11T09:47:24.181Z,99133.02
2018-02-11T09:49:52.489Z,99126.34
2018-02-11T09:52:20.858Z,99136.91
2018-02-11T09:54:49.173Z,99136.86
2018-02-11T09:57:17.517Z,99134.00
2018-02-11T09:59:45.825Z,99133.88
2018-02-11T10:02:14.229Z,99130.70
2018-02-11T10:04:42.541Z,99131.16
2018-02-11T10:07:15.056Z,99135.09
2018-02-11T10:09:43.532Z,99139.05
2018-02-11T10:12:11.913Z,99141.91
2018-02-11T10:14:40.293Z,99144.23
2018-02-11T10:17:08.602Z,99143.20
2018-02-11T10:19:36.947Z,99146.03
2018-02-11T10:22:05.322Z,99141.70
2018-02-11T10:24:33.693Z,99141.74
2018-02-11T10:27:02.006Z,99152.11
2018-02-11T10:29:30.344Z,99153.70
2018-02-11T10:31:58.666Z,99154.50
2018-02-11T10:34:26.993Z,99159.38
2018-02-11T10:36:56.021Z,99153.45
2018-02-11T10:39:24.357Z,99155.90
2018-02-11T10:41:52.672Z,99154.46
2018-02-11T10:44:21.006Z,99157.69
2018-02-11T10:46:49.309Z,99154.96
2018-02-11T10:49:17.694Z,99156.14
2018-02-11T10:51:45.999Z,99160.56
2018-02-11T10:54:14.330Z,99156.04
2018-02-11T10:56:42.841Z,99151.78
2018-02-11T10:59:11.161Z,99146.30
2018-02-11T11:01:39.512Z,99155.51
2018-02-11T11:04:07.833Z,99145.39
2018-02-11T11:06:36.150Z,99159.05
2018-02-11T11:09:04.461Z,99146.53
2018-02-11T11:11:32.788Z,99150.36
2018-02-11T11:14:01.105Z,99150.61
2018-02-11T11:16:29.513Z,99157.88
2018-02-11T11:18:57.834Z,99153.53
2018-02-11T11:21:26.326Z,99153.53
2018-02-11T11:23:54.806Z,99155.59
2018-02-11T11:26:23.151Z,99156.30
2018-02-11T11:28:51.511Z,99155.44
2018-02-11T11:31:19.874Z,99149.97
2018-02-11T11:33:48.186Z,99159.54
2018-02-11T11:36:17.429Z,99154.58
2018-02-11T11:38:45.868Z,99155.77
2018-02-11T11:41:14.194Z,99152.14
2018-02-11T11:43:42.532Z,99153.20
2018-02-11T11:46:10.893Z,99144.73
2018-02-11T11:48:39.198Z,99154.47
2018-02-11T11:51:07.545Z,99161.97
2018-02-11T11:53:35.898Z,99160.74
2018-02-11T11:56:05.142Z,99153.16
2018-02-11T11:58:33.460Z,99152.03
2018-02-11T12:01:01.849Z,99149.16
2018-02-11T12:03:30.239Z,99147.79
2018-02-11T12:05:58.533Z,99147.79
2018-02-11T12:08:26.974Z,99146.23
2018-02-11T12:10:55.345Z,99149.73
2018-02-11T12:13:24.125Z,99142.91
2018-02-11T12:15:52.817Z,99147.30
2018-02-11T12:18:21.207Z,99148.01
2018-02-11T12:20:49.513Z,99145.44
2018-02-11T12:23:17.857Z,99140.39
2018-02-11T12:25:47.011Z,99138.67
2018-02-11T12:28:15.349Z,99141.05
2018-02-11T12:30:43.657Z,99141.64
2018-02-11T12:33:11.997Z,99140.05
2018-02-11T12:35:40.477Z,99138.82
2018-02-11T12:38:08.816Z,99131.91
2018-02-11T12:40:37.229Z,99128.31
2018-02-11T12:43:05.573Z,99128.57
2018-02-11T12:45:33.914Z,99129.77
2018-02-11T12:48:02.234Z,99123.52
2018-02-11T12:50:30.626Z,99111.40
2018-02-11T12:52:58.999Z,99115.29
2018-02-11T12:55:27.372Z,99114.73
2018-02-11T12:57:55.697Z,99111.34
2018-02-11T13:00:24.146Z,99107.11
2018-02-11T13:02:52.457Z,99098.98
2018-02-11T13:05:20.793Z,99135.14
2018-02-11T13:07:49.109Z,99151.02
2018-02-11T13:10:17.470Z,99154.56
2018-02-11T13:12:45.883Z,99154.89
2018-02-11T13:15:14.988Z,99158.62
2018-02-11T13:17:43.340Z,99163.02
2018-02-11T13:20:11.769Z,99152.67
2018-02-11T13:22:40.080Z,99154.06
2018-02-11T13:25:08.434Z,99151.54
2018-02-11T13:27:36.757Z,99158.38
2018-02-11T13:30:05.120Z,99160.66
2018-02-11T13:32:33.434Z,99169.16
2018-02-11T13:35:02.566Z,99183.66
2018-02-11T13:37:30.912Z,99182.77
2018-02-11T13:39:59.228Z,99165.09
2018-02-11T13:42:27.674Z,99143.03
2018-02-11T13:44:55.980Z,99139.73
2018-02-11T13:47:24.322Z,99146.97
2018-02-11T13:49:58.113Z,99147.90
2018-02-11T13:52:26.753Z,99147.83
2018-02-11T13:54:55.053Z,99155.91
2018-02-11T13:57:23.569Z,99150.27
2018-02-11T13:59:51.943Z,99160.18
2018-02-11T14:02:20.314Z,99158.49
2018-02-11T14:04:48.616Z,99153.75
2018-02-11T14:07:16.963Z,99156.91
2018-02-11T14:09:45.366Z,99157.77
2018-02-11T14:12:13.721Z,99150.72
2018-02-11T14:14:42.058Z,99161.06
2018-02-11T14:17:10.384Z,99158.05
2018-02-11T14:19:38.766Z,99152.53
2018-02-11T14:22:07.086Z,99157.55
2018-02-11T14:24:35.470Z,99155.43
2018-02-11T14:27:04.290Z,99162.39
2018-02-11T14:29:32.666Z,99165.53
2018-02-11T14:32:00.998Z,99167.24
2018-02-11T14:34:29.362Z,99168.58
2018-02-11T14:36:57.685Z,99164.70
2018-02-11T14:39:26.026Z,99157.88
2018-02-11T14:41:54.337Z,99171.69
2018-02-11T14:44:22.680Z,99195.08
2018-02-11T14:46:50.985Z,99177.57
2018-02-11T14:49:20.150Z,99176.84
2018-02-11T14:51:48.462Z,99179.61
2018-02-11T14:54:16.803Z,99186.04
2018-02-11T14:56:45.117Z,99178.11
2018-02-11T14:59:13.460Z,99176.66
2018-02-11T15:01:41.777Z,99180.09
2018-02-11T15:04:10.130Z,99181.02
2018-02-11T15:06:38.450Z,99184.54
2018-02-11T15:09:06.774Z,99185.98
2018-02-11T15:11:35.138Z,99183.06
2018-02-11T15:14:03.433Z,99185.77
2018-02-11T15:16:31.769Z,99186.33
2018-02-11T15:19:00.094Z,99192.95
2018-02-11T15:21:28.434Z,99190.14
2018-02-11T15:23:56.744Z,99193.91
2018-02-11T15:26:25.077Z,99195.88
2018-02-11T15:28:53.412Z,99199.73
2018-02-11T15:31:21.816Z,99202.05
2018-02-11T15:33:50.114Z,99204.72
2018-02-11T16:59:52.994Z,99320.84
2018-02-11T17:09:10.290Z,99307.24
2018-02-11T17:11:39.856Z,99317.17
2018-02-11T17:14:08.265Z,99317.58
2018-02-11T17:16:36.620Z,99323.29
2018-02-11T17:19:04.994Z,99320.53
2018-02-11T17:21:33.408Z,99317.89
2018-02-11T17:24:01.725Z,99320.11
2018-02-11T17:26:30.428Z,99323.63
2018-02-11T17:28:58.759Z,99326.95
2018-02-11T17:31:27.153Z,99340.30
2018-02-11T17:33:55.593Z,99347.94
2018-02-11T17:36:23.933Z,99358.83
2018-02-11T17:38:52.249Z,99355.11
2018-02-11T17:41:20.625Z,99358.05
2018-02-11T17:43:49.033Z,99359.63
2018-02-11T17:46:17.369Z,99361.31
2018-02-11T17:48:45.685Z,99366.46
2018-02-11T17:51:14.892Z,99375.00
2018-02-11T17:53:43.214Z,99378.17
2018-02-11T17:56:11.565Z,99379.91
2018-02-11T17:58:39.923Z,99387.47
2018-02-11T18:01:08.249Z,99391.52
2018-02-11T18:03:36.585Z,99399.06
2018-02-11T18:06:05.989Z,99396.30
2018-02-11T18:08:34.351Z,99400.23
2018-02-11T18:11:02.697Z,99402.14
2018-02-11T18:13:31.019Z,99405.52
2018-02-11T18:16:00.346Z,99410.67
2018-02-11T18:18:28.691Z,99419.91
2018-02-11T18:20:56.982Z,99412.48
2018-02-11T18:23:25.318Z,99426.34
2018-02-11T18:25:54.586Z,99426.48
2018-02-11T18:28:22.974Z,99425.25
2018-02-11T18:30:51.285Z,99432.59
2018-02-11T18:33:19.727Z,99437.95
2018-02-11T18:35:48.096Z,99437.66
2018-02-11T18:38:16.473Z,99438.94
2018-02-11T18:40:44.790Z,99440.61
2018-02-11T18:43:13.148Z,99442.20
2018-02-11T18:45:41.511Z,99439.28
2018-02-11T18:48:09.847Z,99455.02
2018-02-11T18:50:38.174Z,99455.65
2018-02-11T18:53:06.533Z,99460.10
2018-02-11T18:55:34.926Z,99461.30
2018-02-11T18:58:03.278Z,99467.27
2018-02-11T19:00:31.593Z,99479.38
2018-02-11T19:02:59.924Z,99469.17
2018-02-11T19:05:28.253Z,99469.95
2018-02-11T19:07:56.630Z,99474.11
2018-02-11T19:10:25.169Z,99477.14
2018-02-11T19:12:53.486Z,99472.80
2018-02-11T19:15:21.830Z,99472.19
2018-02-11T19:17:50.161Z,99474.31
2018-02-11T19:20:18.538Z,99479.55
2018-02-11T19:22:46.954Z,99483.94
2018-02-11T19:25:15.336Z,99486.07
2018-02-11T19:27:43.708Z,99492.67
2018-02-11T19:30:12.214Z,99494.17
2018-02-11T19:32:40.537Z,99501.38
2018-02-11T19:35:08.949Z,99506.84
2018-02-11T19:37:37.373Z,99510.03
2018-02-11T19:40:05.812Z,99506.84
2018-02-11T19:42:34.132Z,99514.00
2018-02-11T19:45:02.919Z,99504.58
2018-02-11T19:47:31.751Z,99500.36
2018-02-11T19:50:00.645Z,99494.78
2018-02-11T19:52:29.482Z,99497.52
2018-02-11T19:54:58.355Z,99513.13
2018-02-11T19:57:27.145Z,99512.16
2018-02-11T19:59:56.353Z,99513.92
2018-02-11T20:02:25.126Z,99516.30
2018-02-11T20:04:53.927Z,99522.67
2018-02-11T20:07:22.713Z,99514.79
2018-02-11T20:09:51.500Z,99518.50
2018-02-11T20:12:21.209Z,99519.94
2018-02-11T20:14:49.995Z,99528.41
2018-02-11T20:17:18.884Z,99532.77
2018-02-11T20:19:47.367Z,99523.69
2018-02-11T20:22:16.049Z,99525.27
2018-02-11T20:24:44.788Z,99526.50
2018-02-11T20:27:13.758Z,99522.86
2018-02-11T20:29:42.511Z,99525.39
2018-02-11T20:32:11.298Z,99528.19
2018-02-11T20:34:40.494Z,99533.24
2018-02-11T20:37:09.076Z,99531.30
2018-02-11T20:39:37.760Z,99541.33
2018-02-11T20:42:06.547Z,99543.86
2018-02-11T20:44:35.333Z,99538.67
2018-02-11T20:47:03.845Z,99541.70
2018-02-11T20:49:32.161Z,99545.88
2018-02-11T20:52:00.522Z,99546.40
2018-02-11T20:54:28.885Z,99551.63
2018-02-11T20:56:57.261Z,99557.75
2018-02-11T20:59:25.646Z,99563.30
2018-02-11T21:01:54.022Z,99550.92
2018-02-11T21:04:22.398Z,99560.20
2018-02-11T21:06:50.742Z,99567.13
2018-02-11T21:09:19.048Z,99568.35
2018-02-11T21:11:47.432Z,99561.91
2018-02-11T21:14:15.757Z,99561.23
2018-02-11T21:16:44.074Z,99562.88
2018-02-11T21:19:12.437Z,99565.59
2018-02-11T21:21:41.065Z,99566.87
2018-02-11T21:24:09.475Z,99568.63
2018-02-11T21:26:38.904Z,99566.05
2018-02-11T21:29:08.532Z,99574.77
2018-02-11T21:31:37.266Z,99578.31
2018-02-11T21:34:06.051Z,99580.17
2018-02-11T21:36:35.557Z,99575.89
2018-02-11T21:39:04.131Z,99574.47
2018-02-11T21:41:32.924Z,99577.62
2018-02-11T21:44:01.529Z,99583.20
2018-02-11T21:46:30.141Z,99584.59
2018-02-11T21:48:58.618Z,99579.19
2018-02-11T21:51:27.356Z,99583.84
2018-02-11T21:53:56.149Z,99581.20
2018-02-11T21:56:24.714Z,99580.07
2018-02-11T21:58:53.061Z,99584.45
2018-02-11T22:01:21.381Z,99583.38
2018-02-11T22:03:49.712Z,99585.47
2018-02-11T22:06:18.065Z,99582.16
2018-02-11T22:08:46.401Z,99581.20
2018-02-11T22:11:14.705Z,99587.68
2018-02-11T22:13:43.101Z,99590.12
2018-02-11T22:16:11.474Z,99587.11
2018-02-11T22:18:39.789Z,99588.52
2018-02-11T22:21:08.133Z,99582.86
2018-02-11T22:23:36.514Z,99587.64
2018-02-11T22:26:04.841Z,99595.50
2018-02-11T22:28:33.165Z,99588.44
2018-02-11T22:31:01.492Z,99588.02
2018-02-11T22:33:29.867Z,99593.00
2018-02-11T22:35:58.181Z,99601.68
2018-02-11T22:38:26.564Z,99603.92
2018-02-11T22:40:54.905Z,99605.67
2018-02-11T22:43:23.212Z,99614.05
2018-02-11T22:45:51.546Z,99619.36
2018-02-11T22:48:19.849Z,99617.56
2018-02-11T22:50:48.241Z,99615.70
2018-02-11T22:53:16.575Z,99617.30
2018-02-11T22:55:44.900Z,99629.50
2018-02-11T22:58:13.214Z,99620.28
2018-02-11T23:00:41.521Z,99626.74
2018-02-11T23:03:09.853Z,99635.70
2018-02-11T23:05:38.162Z,99640.30
2018-02-11T23:08:06.491Z,99643.14
2018-02-11T23:10:34.797Z,99644.70
2018-02-11T23:13:03.285Z,99643.20
2018-02-11T23:15:31.605Z,99638.27
2018-02-11T23:17:59.985Z,99636.79
2018-02-11T23:20:28.414Z,99634.67
2018-02-11T23:22:56.692Z,99644.09
2018-02-11T23:25:25.004Z,99637.83
2018-02-11T23:27:53.380Z,99643.59
2018-02-11T23:30:21.769Z,99646.47
2018-02-11T23:32:50.093Z,99650.41
2018-02-11T23:35:18.405Z,99646.09
2018-02-11T23:37:46.741Z,99650.84
2018-02-11T23:40:15.045Z,99663.14
2018-02-11T23:42:43.444Z,99665.68
2018-02-11T23:45:11.821Z,99666.16
2018-02-11T23:47:40.207Z,99665.14
2018-02-11T23:50:08.583Z,99652.98
2018-02-11T23:52:36.889Z,99666.69
2018-02-11T23:55:05.218Z,99672.98
2018-02-11T23:57:33.544Z,99676.72
